createdAt,value
2022-09-16T00:00:16.300Z,15
2022-09-16T00:05:16.152Z,17
2022-09-16T00:10:17.127Z,19
2022-09-16T00:15:16.762Z,17
2022-09-16T00:20:16.427Z,14
2022-09-16T00:25:16.292Z,14
2022-09-16T00:30:16.866Z,15
2022-09-16T00:35:16.379Z,18
2022-09-16T00:40:16.234Z,15
2022-09-16T00:45:16.334Z,13
2022-09-16T00:50:16.458Z,12
2022-09-16T00:55:16.519Z,11
2022-09-16T01:00:16.424Z,11
2022-09-16T01:05:16.418Z,14
2022-09-16T01:10:16.270Z,15
2022-09-16T01:15:16.532Z,11
2022-09-16T01:20:16.344Z,10
2022-09-16T01:25:16.365Z,11
2022-09-16T01:30:16.506Z,9
2022-09-16T01:35:16.275Z,12
2022-09-16T01:40:16.707Z,13
2022-09-16T01:45:16.784Z,12
2022-09-16T01:50:16.389Z,13
2022-09-16T01:55:16.541Z,13
2022-09-16T02:00:16.478Z,11
2022-09-16T02:05:16.785Z,11
2022-09-16T02:10:17.649Z,11
2022-09-16T02:15:16.585Z,11
2022-09-16T02:20:16.604Z,11
2022-09-16T02:25:16.496Z,8
2022-09-16T02:30:16.580Z,8
2022-09-16T02:35:16.578Z,8
2022-09-16T02:40:16.665Z,10
2022-09-16T02:45:16.592Z,8
2022-09-16T02:50:16.792Z,9
2022-09-16T02:55:16.725Z,11
2022-09-16T03:00:16.799Z,9
2022-09-16T03:05:16.617Z,5
2022-09-16T03:10:16.545Z,7
2022-09-16T03:15:16.920Z,5
2022-09-16T03:20:16.923Z,8
2022-09-16T03:25:16.647Z,7
2022-09-16T03:30:16.639Z,8
2022-09-16T03:35:16.673Z,7
2022-09-16T03:40:16.821Z,9
2022-09-16T03:45:16.748Z,9
2022-09-16T03:50:16.812Z,9
2022-09-16T03:55:16.927Z,12
2022-09-16T04:00:17.865Z,13
2022-09-16T04:05:17.817Z,12
2022-09-16T04:10:19.700Z,13
2022-09-16T04:15:17.857Z,14
2022-09-16T04:20:18.026Z,13
2022-09-16T04:25:17.810Z,13
2022-09-16T04:30:17.774Z,13
2022-09-16T04:35:17.848Z,12
2022-09-16T04:40:17.771Z,12
2022-09-16T04:45:17.827Z,12
2022-09-16T04:50:17.787Z,11
2022-09-16T04:55:18.183Z,11
2022-09-16T05:00:17.845Z,12
2022-09-16T05:05:17.808Z,13
2022-09-16T05:10:18.138Z,13
2022-09-16T05:15:18.134Z,13
2022-09-16T05:20:17.807Z,12
2022-09-16T05:25:17.932Z,13
2022-09-16T05:30:21.620Z,12
2022-09-16T05:35:17.947Z,13
2022-09-16T05:40:17.957Z,14
2022-09-16T05:45:23.201Z,14
2022-09-16T06:15:29.853Z,11
2022-09-16T06:20:17.891Z,12
2022-09-16T06:25:18.510Z,12
2022-09-16T06:30:17.941Z,13
2022-09-16T06:35:18.128Z,13
2022-09-16T06:40:18.181Z,13
2022-09-16T06:45:18.106Z,13
2022-09-16T06:50:18.193Z,12
2022-09-16T06:55:18.029Z,13
2022-09-16T07:00:18.143Z,14
2022-09-16T07:05:18.117Z,15
2022-09-16T07:10:18.411Z,15
2022-09-16T07:15:18.215Z,14
2022-09-16T07:20:18.200Z,15
2022-09-16T07:25:18.326Z,13
2022-09-16T07:30:18.278Z,13
2022-09-16T07:35:18.485Z,13
2022-09-16T07:40:20.386Z,10
2022-09-16T07:45:18.334Z,10
2022-09-16T07:50:18.105Z,12
2022-09-16T07:55:18.256Z,11
2022-09-16T08:00:18.231Z,13
2022-09-16T08:05:16.309Z,13
2022-09-16T08:10:17.112Z,13
2022-09-16T08:15:16.510Z,13
2022-09-16T08:20:16.272Z,13
2022-09-16T08:25:16.555Z,10
2022-09-16T08:30:16.554Z,10
2022-09-16T08:35:16.335Z,9
2022-09-16T08:40:16.355Z,11
2022-09-16T08:45:16.771Z,9
2022-09-16T08:50:16.416Z,7
2022-09-16T08:55:16.363Z,7
2022-09-16T09:00:16.362Z,9
2022-09-16T09:05:16.523Z,11
2022-09-16T09:10:16.234Z,10
2022-09-16T09:15:16.404Z,12
2022-09-16T09:20:16.531Z,13
2022-09-16T09:25:16.438Z,12
2022-09-16T09:30:16.663Z,10
2022-09-16T09:35:16.395Z,11
2022-09-16T09:40:16.742Z,11
2022-09-16T09:45:16.519Z,11
2022-09-16T09:50:16.401Z,13
2022-09-16T09:55:16.801Z,13
2022-09-16T10:00:16.581Z,13
2022-09-16T10:05:16.437Z,13
2022-09-16T10:10:17.427Z,13
2022-09-16T10:15:16.537Z,13
2022-09-16T10:20:16.594Z,13
2022-09-16T10:25:16.837Z,15
2022-09-16T10:30:16.792Z,15
2022-09-16T10:35:16.633Z,15
2022-09-16T10:40:16.629Z,13
2022-09-16T10:45:16.545Z,14
2022-09-16T10:50:16.588Z,15
2022-09-16T10:55:16.651Z,15
2022-09-16T11:00:16.766Z,15
2022-09-16T11:05:16.781Z,14
2022-09-16T11:10:16.555Z,12
2022-09-16T11:15:17.039Z,12
2022-09-16T11:20:16.597Z,13
2022-09-16T11:25:16.777Z,14
2022-09-16T11:30:16.679Z,13
2022-09-16T11:35:16.760Z,13
2022-09-16T11:40:16.988Z,13
2022-09-16T11:45:16.700Z,13
2022-09-16T11:50:16.610Z,13
2022-09-16T11:55:16.664Z,13
2022-09-16T12:00:16.873Z,14
2022-09-16T12:05:16.726Z,13
2022-09-16T12:10:18.301Z,15
2022-09-16T12:15:17.102Z,15
2022-09-16T12:20:16.716Z,13
2022-09-16T12:25:16.791Z,15
2022-09-16T12:30:16.960Z,15
2022-09-16T12:35:17.100Z,16
2022-09-16T12:40:16.863Z,14
2022-09-16T12:45:17.107Z,14
2022-09-16T12:50:16.736Z,15
2022-09-16T12:55:16.818Z,15
2022-09-16T13:00:17.059Z,14
2022-09-16T13:10:26.491Z,13
2022-09-16T13:15:18.628Z,15
2022-09-16T13:20:18.234Z,15
2022-09-16T13:25:17.954Z,16
2022-09-16T13:30:17.940Z,17
2022-09-16T13:35:18.629Z,15
2022-09-16T13:40:18.420Z,16
2022-09-16T13:45:22.047Z,15
2022-09-16T13:50:17.892Z,14
2022-09-16T14:00:23.339Z,15
2022-09-16T14:05:18.855Z,17
2022-09-16T14:10:17.935Z,14
2022-09-16T14:15:18.073Z,14
2022-09-16T14:58:12.753Z,16
2022-09-16T14:59:18.542Z,16
2022-09-16T14:59:19.129Z,14
2022-09-16T14:59:19.723Z,16
2022-09-16T14:59:20.356Z,17
2022-09-16T14:59:21.013Z,19
2022-09-16T14:59:21.701Z,18
2022-09-16T14:59:33.601Z,15
2022-09-16T15:00:33.594Z,15
2022-09-16T15:05:18.089Z,14
2022-09-16T15:10:18.253Z,13
2022-09-16T15:15:18.170Z,14
2022-09-16T15:38:45.984Z,14
2022-09-16T16:16:22.654Z,13
2022-09-16T16:16:26.125Z,14
2022-09-16T16:16:30.211Z,12
2022-09-16T16:16:41.994Z,11
2022-09-16T16:17:11.625Z,12
2022-09-16T16:17:14.352Z,10
2022-09-16T16:17:15.221Z,11
2022-09-16T16:17:15.836Z,9
2022-09-16T17:01:04.598Z,7
2022-09-16T17:01:07.847Z,12
2022-09-16T17:01:10.018Z,13
2022-09-16T17:01:18.770Z,10
2022-09-16T17:01:20.996Z,14
2022-09-16T17:01:23.261Z,13
2022-09-16T17:03:45.121Z,7
2022-09-16T17:05:27.979Z,12
2022-09-16T17:05:28.554Z,13
2022-09-16T17:06:34.228Z,10
2022-09-16T17:06:34.806Z,14
2022-09-16T17:06:35.361Z,13
2022-09-16T17:06:36.011Z,15
2022-09-16T17:06:36.628Z,17
2022-09-16T17:06:37.302Z,17
2022-09-16T17:07:02.714Z,16
2022-09-16T17:10:16.981Z,13
2022-09-16T17:15:17.159Z,12
2022-09-16T17:20:17.198Z,13
2022-09-16T17:25:17.147Z,11
2022-09-16T17:30:17.159Z,13
2022-09-16T17:35:17.409Z,11
2022-09-16T17:40:17.407Z,9
2022-09-16T17:45:17.234Z,12
2022-09-16T17:50:22.208Z,15
2022-09-16T17:55:17.138Z,11
2022-09-16T18:00:17.273Z,9
2022-09-16T18:05:18.251Z,9
2022-09-16T18:10:18.303Z,13
2022-09-16T18:15:17.206Z,10
2022-09-16T18:20:17.198Z,10
2022-09-16T18:25:17.329Z,13
2022-09-16T18:30:17.130Z,13
2022-09-16T18:35:17.485Z,11
2022-09-16T18:40:17.332Z,11
2022-09-16T18:45:17.449Z,9
2022-09-16T18:50:17.684Z,8
2022-09-16T18:55:17.533Z,7
2022-09-16T19:00:17.257Z,10
2022-09-16T19:05:17.500Z,12
2022-09-16T19:10:17.864Z,13
2022-09-16T19:15:17.403Z,14
2022-09-16T19:20:18.085Z,15
2022-09-16T19:25:17.437Z,12
2022-09-16T19:30:17.213Z,11
2022-09-16T19:35:17.457Z,12
2022-09-16T19:40:17.336Z,12
2022-09-16T19:45:17.655Z,12
2022-09-16T19:50:17.377Z,13
2022-09-16T19:55:17.525Z,11
2022-09-16T20:00:17.448Z,10
2022-09-16T20:05:17.738Z,13
2022-09-16T20:10:17.311Z,10
2022-09-16T20:15:17.441Z,11
2022-09-16T20:20:17.827Z,12
2022-09-16T20:25:23.516Z,13
2022-09-16T20:30:17.757Z,11
2022-09-16T20:35:18.021Z,11
2022-09-16T20:40:17.750Z,10
2022-09-16T20:45:17.772Z,12
2022-09-16T20:50:17.506Z,14
2022-09-16T20:55:17.864Z,13
2022-09-16T21:00:17.728Z,12
2022-09-16T21:05:17.745Z,14
2022-09-16T21:10:17.691Z,13
2022-09-16T21:15:17.791Z,11
2022-09-16T21:20:17.567Z,10
2022-09-16T21:25:17.875Z,11
2022-09-16T21:30:17.900Z,10
2022-09-16T21:35:17.829Z,9
2022-09-16T21:40:18.087Z,10
2022-09-16T21:45:18.105Z,12
2022-09-16T21:50:17.649Z,13
2022-09-16T21:55:17.826Z,12
2022-09-16T22:00:18.075Z,12
2022-09-16T22:05:17.793Z,13
2022-09-16T22:10:17.866Z,14
2022-09-16T22:15:17.888Z,10
2022-09-16T22:20:17.700Z,10
2022-09-16T22:25:18.167Z,9
2022-09-16T22:30:17.724Z,12
2022-09-16T22:35:18.023Z,15
2022-09-16T22:40:17.982Z,16
2022-09-16T22:45:17.926Z,17
2022-09-16T22:50:17.950Z,15
2022-09-16T22:55:17.991Z,14
2022-09-16T23:00:17.777Z,15
2022-09-16T23:05:18.006Z,17
2022-09-16T23:10:18.286Z,16
2022-09-16T23:15:18.010Z,15
2022-09-16T23:20:17.789Z,13
2022-09-16T23:25:18.159Z,14
2022-09-16T23:30:17.948Z,14
2022-09-16T23:35:18.006Z,15
2022-09-16T23:40:18.204Z,16
2022-09-16T23:45:18.030Z,17
2022-09-16T23:50:17.870Z,18
2022-09-16T23:55:18.155Z,17
